Time;durP1;ratioP1;P1;durP2;ratioP2;P2;SDS_P1;SDS_P2;PMS_P1;PMS_P2;Temp;Humidity;BMP_temperature;BMP_pressure;BME280_temperature;BME280_humidity;BME280_pressure;Samples;Min_cycle;Max_cycle;Signal;HPM_P1;HPM_P2
2022/03/07 00:01:42;;;;;;;4.95;3.28;;;0.50;99.90;;;;;;4906470;29;20131;-86
2022/03/07 00:04:07;;;;;;;4.35;2.88;;;0.50;99.90;;;;;;4906478;29;20028;-85
2022/03/07 00:06:33;;;;;;;3.70;2.60;;;0.40;99.90;;;;;;4906428;29;20554;-86
2022/03/07 00:08:59;;;;;;;4.97;2.78;;;0.40;99.90;;;;;;4923258;29;20507;-86
2022/03/07 00:11:24;;;;;;;5.43;3.05;;;0.40;99.90;;;;;;4906369;29;20067;-86
2022/03/07 00:13:50;;;;;;;4.80;3.10;;;0.30;99.90;;;;;;4906316;29;20071;-85
2022/03/07 00:16:17;;;;;;;5.32;3.13;;;0.30;99.90;;;;;;4906237;29;20032;-85
2022/03/07 00:18:42;;;;;;;5.57;3.25;;;0.30;99.90;;;;;;4903072;29;20047;-85
2022/03/07 00:21:09;;;;;;;4.70;3.08;;;0.30;99.90;;;;;;4903104;29;20032;-86
2022/03/07 00:23:34;;;;;;;4.65;2.97;;;0.30;99.90;;;;;;4903421;29;20047;-86
2022/03/07 00:26:00;;;;;;;6.25;3.40;;;0.20;99.90;;;;;;4903265;29;20028;-86
2022/03/07 00:28:26;;;;;;;5.53;3.35;;;0.30;99.90;;;;;;4920354;29;20032;-85
2022/03/07 00:30:52;;;;;;;4.88;3.20;;;0.30;99.90;;;;;;4903109;29;20032;-85
2022/03/07 00:33:18;;;;;;;5.07;3.40;;;0.20;99.90;;;;;;4903206;29;20036;-85
2022/03/07 00:35:44;;;;;;;6.82;3.00;;;0.10;99.90;;;;;;4903242;29;20498;-85
2022/03/07 00:38:10;;;;;;;5.28;3.03;;;0.10;99.90;;;;;;4902959;29;20442;-86
2022/03/07 00:40:36;;;;;;;5.30;3.55;;;0.10;99.90;;;;;;4902707;29;20040;-86
2022/03/07 00:43:05;;;;;;;5.07;3.17;;;0.10;99.90;;;;;;4902832;29;20107;-85
2022/03/07 00:45:31;;;;;;;5.70;2.92;;;0.10;99.90;;;;;;4902671;29;20037;-86
2022/03/07 00:47:56;;;;;;;4.70;2.88;;;0.00;99.90;;;;;;4902803;29;20036;-84
2022/03/07 00:50:22;;;;;;;5.78;3.10;;;0.00;99.90;;;;;;4903123;29;20054;-86
2022/03/07 00:52:47;;;;;;;5.05;3.05;;;0.00;99.90;;;;;;4903048;29;20032;-85
2022/03/07 00:55:13;;;;;;;4.88;3.33;;;-0.10;99.90;;;;;;4902470;29;20048;-85
2022/03/07 00:57:39;;;;;;;5.60;3.17;;;-0.10;99.90;;;;;;4918377;29;20028;-85
2022/03/07 01:00:06;;;;;;;6.20;3.50;;;-0.10;99.90;;;;;;4902339;29;20036;-85
2022/03/07 01:02:32;;;;;;;4.82;3.10;;;-0.10;99.90;;;;;;4902873;29;20107;-84
2022/03/07 01:04:59;;;;;;;4.80;3.00;;;-0.20;99.90;;;;;;4902530;29;20040;-86
2022/03/07 01:07:24;;;;;;;7.05;3.42;;;-0.20;99.90;;;;;;4902574;29;20036;-85
2022/03/07 01:09:50;;;;;;;4.63;2.78;;;-0.30;99.90;;;;;;4902060;29;20183;-85
2022/03/07 01:12:16;;;;;;;5.68;3.13;;;-0.30;99.90;;;;;;4902235;29;20469;-85
2022/03/07 01:14:41;;;;;;;5.05;3.20;;;-0.30;99.90;;;;;;4902012;29;20044;-84
2022/03/07 01:17:07;;;;;;;5.55;3.42;;;-0.20;99.90;;;;;;4902316;29;20067;-85
2022/03/07 01:19:33;;;;;;;5.82;3.45;;;-0.20;99.90;;;;;;4902236;29;20534;-86
2022/03/07 01:21:58;;;;;;;5.57;3.15;;;-0.20;99.90;;;;;;4901821;29;20119;-86
2022/03/07 01:24:24;;;;;;;6.82;4.07;;;-0.20;99.90;;;;;;4902154;29;20063;-87
2022/03/07 01:26:50;;;;;;;6.40;4.00;;;-0.30;99.90;;;;;;4901957;29;20040;-85
2022/03/07 01:29:15;;;;;;;5.53;3.50;;;-0.30;99.90;;;;;;4900760;29;20046;-86
2022/03/07 01:31:41;;;;;;;5.38;3.33;;;-0.30;99.90;;;;;;4901515;29;20039;-85
2022/03/07 01:34:07;;;;;;;5.40;3.33;;;-0.30;99.90;;;;;;4901311;29;20068;-85
2022/03/07 01:36:33;;;;;;;4.45;2.95;;;-0.30;99.90;;;;;;4901792;29;20028;-85
2022/03/07 01:38:59;;;;;;;5.50;3.70;;;-0.30;99.90;;;;;;4916640;29;20076;-85
2022/03/07 01:41:25;;;;;;;5.30;3.38;;;-0.30;99.90;;;;;;4905349;29;20082;-84
2022/03/07 01:43:50;;;;;;;6.90;4.20;;;-0.40;99.90;;;;;;4891662;29;20592;-85
2022/03/07 01:46:16;;;;;;;6.05;3.80;;;-0.40;99.90;;;;;;4893410;29;20041;-85
2022/03/07 01:48:41;;;;;;;5.35;3.58;;;-0.50;99.90;;;;;;4898101;29;20040;-86
2022/03/07 01:51:10;;;;;;;8.27;3.78;;;-0.50;99.90;;;;;;4898107;29;20036;-86
2022/03/07 01:53:37;;;;;;;5.90;3.53;;;-0.50;99.90;;;;;;4882723;29;20206;-86
2022/03/07 01:56:04;;;;;;;6.18;3.53;;;-0.50;99.90;;;;;;4882809;29;20076;-86
2022/03/07 01:58:30;;;;;;;6.60;3.70;;;-0.60;99.90;;;;;;4898345;29;20372;-84
2022/03/07 02:00:56;;;;;;;6.78;3.83;;;-0.60;99.90;;;;;;4899521;29;20033;-85
2022/03/07 02:03:21;;;;;;;6.05;3.80;;;-0.60;99.90;;;;;;4898013;29;20503;-85
2022/03/07 02:05:48;;;;;;;6.45;4.25;;;-0.60;99.90;;;;;;4898276;29;20085;-85
2022/03/07 02:08:14;;;;;;;5.90;3.40;;;-0.70;99.90;;;;;;4898088;29;20512;-85
2022/03/07 02:10:42;;;;;;;7.07;3.78;;;-0.70;99.90;;;;;;4882792;29;20391;-85
2022/03/07 02:13:18;;;;;;;6.15;3.92;;;-0.70;99.90;;;;;;4898358;29;20036;-84
2022/03/07 02:15:51;;;;;;;4.72;3.53;;;-0.70;99.90;;;;;;4882439;29;20096;-85
2022/03/07 02:18:17;;;;;;;6.50;3.97;;;-0.80;99.90;;;;;;4897661;29;20056;-85
2022/03/07 02:20:43;;;;;;;5.35;3.65;;;-0.80;99.90;;;;;;4882649;29;20101;-85
2022/03/07 02:23:08;;;;;;;5.68;3.88;;;-0.80;99.90;;;;;;4882319;29;20390;-85
2022/03/07 02:25:34;;;;;;;6.57;4.20;;;-0.80;99.90;;;;;;4897828;29;20037;-85
2022/03/07 02:28:00;;;;;;;7.25;4.43;;;-0.80;99.90;;;;;;4897086;29;20033;-84
2022/03/07 02:30:25;;;;;;;6.30;3.90;;;-0.90;99.90;;;;;;4881431;29;20048;-84
2022/03/07 02:32:51;;;;;;;5.72;3.80;;;-0.90;99.90;;;;;;4881404;29;20064;-84
2022/03/07 02:35:16;;;;;;;6.38;4.25;;;-0.90;99.90;;;;;;4896866;29;20467;-85
2022/03/07 02:37:42;;;;;;;6.00;3.67;;;-0.90;99.90;;;;;;4897021;29;20024;-85
2022/03/07 02:40:09;;;;;;;6.00;4.32;;;-0.90;99.90;;;;;;4896937;29;20057;-85
2022/03/07 02:42:35;;;;;;;6.00;4.00;;;-0.90;99.90;;;;;;4881207;29;20064;-85
2022/03/07 02:45:01;;;;;;;5.70;3.85;;;-1.00;99.90;;;;;;4896862;29;20028;-85
2022/03/07 02:47:26;;;;;;;5.75;3.90;;;-1.00;99.90;;;;;;4881201;29;20423;-84
2022/03/07 02:49:52;;;;;;;6.90;4.50;;;-1.00;99.90;;;;;;4898046;29;20036;-85
2022/03/07 02:52:18;;;;;;;5.68;4.05;;;-1.00;99.90;;;;;;4896998;29;20184;-85
2022/03/07 02:54:43;;;;;;;6.20;3.90;;;-1.00;99.90;;;;;;4898505;29;20535;-84
2022/03/07 02:57:09;;;;;;;5.80;3.90;;;-1.10;99.90;;;;;;4897233;29;20131;-84
2022/03/07 02:59:35;;;;;;;6.07;4.20;;;-1.00;99.90;;;;;;4897151;29;20479;-84
2022/03/07 03:02:01;;;;;;;6.63;4.25;;;-1.10;99.90;;;;;;4881944;29;20037;-84
2022/03/07 03:04:26;;;;;;;7.03;4.63;;;-1.10;99.90;;;;;;4883044;29;20041;-84
2022/03/07 03:06:52;;;;;;;6.78;3.80;;;-1.10;99.90;;;;;;4899815;29;20365;-84
2022/03/07 03:09:18;;;;;;;10.35;5.18;;;-1.10;99.90;;;;;;4899401;29;20119;-84
2022/03/07 03:11:43;;;;;;;7.22;4.10;;;-1.10;99.90;;;;;;4900703;29;20195;-85
2022/03/07 03:14:12;;;;;;;6.03;4.53;;;-1.10;99.90;;;;;;4911719;29;20068;-84
2022/03/07 03:16:37;;;;;;;6.75;4.00;;;-1.10;99.90;;;;;;4902401;29;20040;-83
2022/03/07 03:19:03;;;;;;;6.63;4.18;;;-1.20;99.90;;;;;;4920567;29;20049;-84
2022/03/07 03:21:29;;;;;;;6.55;4.50;;;-1.20;99.90;;;;;;4901356;29;20131;-84
2022/03/07 03:23:55;;;;;;;7.25;4.85;;;-1.20;99.90;;;;;;4917347;29;20064;-85
2022/03/07 03:26:20;;;;;;;7.00;3.78;;;-1.20;99.90;;;;;;4921138;29;20025;-86
2022/03/07 03:28:46;;;;;;;6.72;4.00;;;-1.20;99.90;;;;;;4918139;29;20040;-84
2022/03/07 03:31:12;;;;;;;6.38;4.07;;;-1.20;99.90;;;;;;4916422;29;20080;-84
2022/03/07 03:33:42;;;;;;;7.40;4.40;;;-1.20;99.90;;;;;;4912670;29;20028;-85
2022/03/07 03:36:08;;;;;;;6.13;4.10;;;-1.30;99.90;;;;;;4899348;29;20032;-85
2022/03/07 03:38:34;;;;;;;8.88;4.68;;;-1.20;99.90;;;;;;4882913;29;20041;-85
2022/03/07 03:40:59;;;;;;;8.15;4.80;;;-1.20;99.90;;;;;;4882388;29;20152;-84
2022/03/07 03:43:25;;;;;;;6.65;4.32;;;-1.20;99.90;;;;;;4909930;29;20056;-86
2022/03/07 03:45:51;;;;;;;14.88;6.32;;;-1.30;99.90;;;;;;4897811;29;20051;-84
2022/03/07 03:48:16;;;;;;;9.38;4.88;;;-1.20;99.90;;;;;;4897155;29;20040;-84
2022/03/07 03:50:42;;;;;;;7.25;4.40;;;-1.30;99.90;;;;;;4897322;29;20131;-85
2022/03/07 03:53:07;;;;;;;6.70;4.15;;;-1.30;99.90;;;;;;4882847;29;20028;-84
2022/03/07 03:55:33;;;;;;;6.70;4.00;;;-1.30;99.90;;;;;;4902352;29;20060;-84
2022/03/07 03:57:59;;;;;;;7.00;4.30;;;-1.30;99.90;;;;;;4885321;29;20487;-84
2022/03/07 04:00:25;;;;;;;7.22;4.28;;;-1.30;99.90;;;;;;4885497;29;20123;-83
2022/03/07 04:02:50;;;;;;;7.43;5.13;;;-1.30;99.90;;;;;;4902071;29;20032;-85
2022/03/07 04:05:16;;;;;;;7.18;4.80;;;-1.30;99.90;;;;;;4901889;29;20530;-83
2022/03/07 04:07:43;;;;;;;8.77;4.90;;;-1.20;99.90;;;;;;4900277;29;20505;-84
2022/03/07 04:10:10;;;;;;;7.05;4.65;;;-1.20;99.90;;;;;;4901698;29;20051;-84
2022/03/07 04:12:36;;;;;;;7.13;4.72;;;-1.20;99.90;;;;;;4884925;29;20024;-83
2022/03/07 04:15:03;;;;;;;8.02;4.63;;;-1.20;99.90;;;;;;4885142;29;20127;-85
2022/03/07 04:17:29;;;;;;;8.88;5.05;;;-1.20;99.90;;;;;;4899731;29;20036;-84
2022/03/07 04:19:54;;;;;;;7.50;4.65;;;-1.20;99.90;;;;;;4899712;29;20041;-83
2022/03/07 04:22:20;;;;;;;8.57;5.07;;;-1.30;99.90;;;;;;4900011;29;20036;-83
2022/03/07 04:24:46;;;;;;;7.95;4.78;;;-1.20;99.90;;;;;;4900113;29;20048;-84
2022/03/07 04:27:11;;;;;;;8.82;4.72;;;-1.20;99.90;;;;;;4900144;29;20044;-83
2022/03/07 04:29:37;;;;;;;7.20;4.45;;;-1.20;99.90;;;;;;4899988;29;20037;-82
2022/03/07 04:32:03;;;;;;;7.85;4.82;;;-1.20;99.90;;;;;;4899342;29;20064;-84
2022/03/07 04:34:29;;;;;;;9.73;4.60;;;-1.10;99.90;;;;;;4883828;29;20072;-84
2022/03/07 04:36:55;;;;;;;10.50;5.15;;;-1.10;99.90;;;;;;4902969;29;20104;-84
2022/03/07 04:39:20;;;;;;;9.05;5.50;;;-1.10;99.90;;;;;;4905538;29;20072;-84
2022/03/07 04:41:46;;;;;;;7.63;5.13;;;-1.10;99.90;;;;;;4905144;29;20359;-82
2022/03/07 04:44:12;;;;;;;8.63;5.50;;;-1.10;99.90;;;;;;4908731;29;20403;-84
2022/03/07 04:46:38;;;;;;;8.20;4.85;;;-1.10;99.90;;;;;;4894921;29;20051;-83
2022/03/07 04:49:04;;;;;;;9.60;5.30;;;-1.10;99.90;;;;;;4908935;29;20099;-84
2022/03/07 04:51:29;;;;;;;9.48;5.72;;;-1.10;99.90;;;;;;4895217;29;20064;-83
2022/03/07 04:53:55;;;;;;;8.15;5.15;;;-1.10;99.90;;;;;;4903075;29;20451;-84
2022/03/07 04:56:21;;;;;;;8.10;5.60;;;-1.10;99.90;;;;;;4903980;29;20028;-83
2022/03/07 04:58:47;;;;;;;10.50;5.65;;;-1.10;99.90;;;;;;4886589;29;20384;-84
2022/03/07 05:01:14;;;;;;;12.30;6.07;;;-1.10;99.90;;;;;;4899823;29;20119;-84
2022/03/07 05:03:40;;;;;;;12.20;5.72;;;-1.10;99.90;;;;;;4899616;29;20534;-84
2022/03/07 05:06:08;;;;;;;9.88;5.20;;;-1.10;99.90;;;;;;4880300;29;20048;-82
2022/03/07 05:08:34;;;;;;;9.80;5.60;;;-1.10;99.90;;;;;;4895807;29;20032;-84
2022/03/07 05:11:01;;;;;;;9.02;5.60;;;-1.10;99.90;;;;;;4895804;29;20757;-84
2022/03/07 05:13:26;;;;;;;9.48;5.38;;;-1.10;99.90;;;;;;4882177;29;20037;-84
2022/03/07 05:15:52;;;;;;;8.60;5.68;;;-1.00;99.90;;;;;;4899245;29;20060;-83
2022/03/07 05:18:18;;;;;;;9.60;5.45;;;-1.10;99.90;;;;;;4897328;29;20048;-84
2022/03/07 05:20:43;;;;;;;9.18;5.65;;;-1.00;99.90;;;;;;4899708;29;20500;-83
2022/03/07 05:23:09;;;;;;;9.68;5.85;;;-1.00;99.90;;;;;;4882530;29;20092;-83
2022/03/07 05:25:35;;;;;;;9.23;5.82;;;-1.10;99.90;;;;;;4899103;29;20396;-84
2022/03/07 05:28:00;;;;;;;10.85;5.78;;;-1.10;99.90;;;;;;4897829;29;20029;-83
2022/03/07 05:30:26;;;;;;;8.40;5.82;;;-1.10;99.90;;;;;;4897063;29;20096;-83
2022/03/07 05:32:53;;;;;;;9.52;5.47;;;-1.10;99.90;;;;;;4896996;29;20441;-86
2022/03/07 05:35:21;;;;;;;11.00;5.88;;;-1.10;99.90;;;;;;4880852;29;20040;-84
2022/03/07 05:37:48;;;;;;;9.02;6.25;;;-1.10;99.90;;;;;;4881287;29;20127;-84
2022/03/07 05:40:14;;;;;;;9.15;5.55;;;-1.20;99.90;;;;;;4896335;29;20055;-85
2022/03/07 05:42:41;;;;;;;10.82;6.60;;;-1.10;99.90;;;;;;4880737;29;20523;-84
2022/03/07 05:45:08;;;;;;;10.18;6.00;;;-1.20;99.90;;;;;;4895067;29;20096;-84
2022/03/07 05:47:34;;;;;;;8.95;6.35;;;-1.20;99.90;;;;;;4897289;29;20598;-84
2022/03/07 05:50:00;;;;;;;11.98;6.35;;;-1.20;99.90;;;;;;4881435;29;20052;-86
2022/03/07 05:52:26;;;;;;;9.60;5.63;;;-1.30;99.90;;;;;;4882044;29;20453;-86
2022/03/07 05:54:52;;;;;;;9.20;6.07;;;-1.30;99.90;;;;;;4898531;29;20075;-84
2022/03/07 05:57:17;;;;;;;10.23;6.75;;;-1.30;99.90;;;;;;4897759;29;20103;-84
2022/03/07 05:59:43;;;;;;;9.25;5.78;;;-1.30;99.90;;;;;;4880433;29;20162;-85
2022/03/07 06:02:10;;;;;;;10.18;6.13;;;-1.40;99.90;;;;;;4895537;29;20123;-85
2022/03/07 06:04:36;;;;;;;9.77;6.35;;;-1.40;99.90;;;;;;4897054;29;20766;-87
2022/03/07 06:07:01;;;;;;;10.73;7.00;;;-1.40;99.90;;;;;;4896760;29;20114;-87
2022/03/07 06:09:27;;;;;;;10.45;7.25;;;-1.40;99.90;;;;;;4898870;29;20044;-85
2022/03/07 06:11:53;;;;;;;9.80;6.18;;;-1.40;99.90;;;;;;4896535;29;20043;-86
2022/03/07 06:14:21;;;;;;;11.18;6.25;;;-1.40;99.90;;;;;;4898822;29;20040;-85
2022/03/07 06:16:47;;;;;;;11.18;6.88;;;-1.40;99.90;;;;;;4897771;29;20111;-86
2022/03/07 06:19:13;;;;;;;10.15;7.25;;;-1.40;99.90;;;;;;4915398;29;20595;-86
2022/03/07 06:21:39;;;;;;;13.20;7.47;;;-1.40;99.90;;;;;;4898446;29;20444;-86
2022/03/07 06:24:05;;;;;;;11.45;7.15;;;-1.40;99.90;;;;;;4896464;29;20054;-86
2022/03/07 06:26:32;;;;;;;10.95;6.97;;;-1.40;99.90;;;;;;4900786;29;20066;-85
2022/03/07 06:28:57;;;;;;;9.82;6.65;;;-1.40;99.90;;;;;;4901002;29;20032;-86
2022/03/07 06:31:23;;;;;;;11.13;7.07;;;-1.40;99.90;;;;;;4896833;29;20039;-85
2022/03/07 06:33:49;;;;;;;12.40;7.18;;;-1.30;99.90;;;;;;4898462;29;20410;-84
2022/03/07 06:36:14;;;;;;;10.38;7.00;;;-1.30;99.90;;;;;;4897058;29;20040;-86
2022/03/07 06:38:40;;;;;;;11.10;7.18;;;-1.30;99.90;;;;;;4897058;29;20053;-85
2022/03/07 06:41:07;;;;;;;10.38;7.00;;;-1.30;99.90;;;;;;4897068;29;20036;-86
2022/03/07 06:43:33;;;;;;;13.07;7.80;;;-1.30;99.90;;;;;;4885814;29;20417;-86
2022/03/07 06:45:59;;;;;;;12.32;7.38;;;-1.30;99.90;;;;;;4897209;29;20088;-86
2022/03/07 06:48:24;;;;;;;12.00;7.55;;;-1.20;99.90;;;;;;4897469;29;20036;-86
2022/03/07 06:50:50;;;;;;;10.48;7.18;;;-1.20;99.90;;;;;;4884473;29;20052;-87
2022/03/07 06:53:16;;;;;;;11.95;7.85;;;-1.20;99.90;;;;;;4900852;29;20538;-86
2022/03/07 06:55:42;;;;;;;12.77;8.25;;;-1.20;99.90;;;;;;4903135;29;20036;-86
2022/03/07 06:58:07;;;;;;;12.13;7.32;;;-1.20;99.90;;;;;;4901562;29;20039;-86
2022/03/07 07:00:33;;;;;;;10.38;7.10;;;-1.20;99.90;;;;;;4898125;29;20086;-86
2022/03/07 07:02:59;;;;;;;10.27;6.78;;;-1.20;99.90;;;;;;4898068;29;20035;-87
2022/03/07 07:05:25;;;;;;;12.75;8.05;;;-1.10;99.90;;;;;;4901050;29;20048;-87
2022/03/07 07:07:50;;;;;;;10.10;7.63;;;-1.10;99.90;;;;;;4901681;29;20043;-87
2022/03/07 07:10:18;;;;;;;11.43;7.25;;;-1.10;99.90;;;;;;4900768;29;20111;-86
2022/03/07 07:12:46;;;;;;;10.07;7.35;;;-1.10;99.90;;;;;;4900923;29;20035;-86
2022/03/07 07:15:11;;;;;;;12.35;7.90;;;-1.00;99.90;;;;;;4917281;29;20036;-85
2022/03/07 07:17:37;;;;;;;11.27;7.80;;;-1.00;99.90;;;;;;4900488;29;20099;-87
2022/03/07 07:20:05;;;;;;;11.50;7.43;;;-1.00;99.90;;;;;;4900407;29;20142;-87
2022/03/07 07:22:31;;;;;;;15.25;9.02;;;-0.90;99.90;;;;;;4900548;29;20100;-87
2022/03/07 07:24:57;;;;;;;10.93;7.07;;;-0.90;99.90;;;;;;4900431;29;20127;-86
2022/03/07 07:27:24;;;;;;;12.95;8.57;;;-0.80;99.90;;;;;;4902373;29;20103;-86
2022/03/07 07:29:49;;;;;;;12.02;7.82;;;-0.80;99.90;;;;;;4910918;29;20044;-87
2022/03/07 07:32:15;;;;;;;13.52;7.88;;;-0.80;99.90;;;;;;4905210;29;20032;-86
2022/03/07 07:34:41;;;;;;;13.10;8.10;;;-0.70;99.90;;;;;;4904054;29;20115;-86
2022/03/07 07:37:07;;;;;;;12.80;7.78;;;-0.60;99.90;;;;;;4905540;29;20490;-86
2022/03/07 07:39:32;;;;;;;11.45;7.45;;;-0.50;99.90;;;;;;4908025;29;20044;-89
2022/03/07 07:41:58;;;;;;;13.35;7.72;;;-0.40;99.90;;;;;;4901893;29;20045;-87
2022/03/07 07:44:24;;;;;;;13.27;8.30;;;-0.30;99.90;;;;;;4895976;29;20050;-87
2022/03/07 07:46:50;;;;;;;11.80;7.65;;;-0.10;99.90;;;;;;4904978;29;20096;-88
2022/03/07 07:49:16;;;;;;;11.48;7.25;;;0.10;99.90;;;;;;4904851;29;20524;-88
2022/03/07 07:51:41;;;;;;;11.32;7.90;;;0.30;99.90;;;;;;4913153;29;20389;-87
2022/03/07 07:54:07;;;;;;;10.45;6.90;;;0.50;99.90;;;;;;4916666;29;20047;-88
2022/03/07 07:56:33;;;;;;;10.98;6.47;;;0.60;99.90;;;;;;4901545;29;20035;-90
2022/03/07 07:58:58;;;;;;;11.48;6.55;;;0.60;99.90;;;;;;4901719;29;20032;-89
2022/03/07 08:01:24;;;;;;;12.00;6.43;;;0.70;99.90;;;;;;4901639;29;20036;-89
2022/03/07 08:03:50;;;;;;;9.27;5.90;;;0.80;99.90;;;;;;4907535;29;20040;-90
2022/03/07 08:06:15;;;;;;;10.10;6.93;;;1.00;99.90;;;;;;4905164;29;20082;-88
2022/03/07 08:08:41;;;;;;;11.23;5.90;;;1.20;99.90;;;;;;4905299;29;20036;-89
2022/03/07 08:11:11;;;;;;;9.43;6.05;;;1.40;99.90;;;;;;4904986;29;20434;-89
2022/03/07 08:13:37;;;;;;;8.75;6.15;;;1.40;99.90;;;;;;4889410;29;20093;-90
2022/03/07 08:16:02;;;;;;;9.40;6.18;;;1.50;99.90;;;;;;4920538;29;20451;-89
2022/03/07 08:18:28;;;;;;;8.20;5.78;;;1.60;99.90;;;;;;4921448;29;20032;-88
2022/03/07 08:21:02;;;;;;;9.55;5.93;;;1.60;99.90;;;;;;4923942;29;20103;-89
2022/03/07 08:23:28;;;;;;;10.27;6.70;;;1.60;99.90;;;;;;4922658;29;20036;-89
2022/03/07 08:25:54;;;;;;;8.98;5.95;;;1.60;99.90;;;;;;4905612;29;20066;-91
2022/03/07 08:28:20;;;;;;;9.50;6.15;;;1.70;99.90;;;;;;4907132;29;20032;-90
2022/03/07 08:30:46;;;;;;;9.45;6.32;;;1.70;99.90;;;;;;4906249;29;20131;-89
2022/03/07 08:33:14;;;;;;;9.35;6.55;;;1.80;99.90;;;;;;4888362;29;20039;-90
2022/03/07 08:35:40;;;;;;;11.48;7.15;;;1.80;99.90;;;;;;4919115;29;20039;-89
2022/03/07 08:38:05;;;;;;;10.63;8.25;;;1.90;99.90;;;;;;4904812;29;20032;-89
2022/03/07 08:40:31;;;;;;;9.75;7.15;;;2.10;99.90;;;;;;4903954;29;20407;-90
2022/03/07 08:42:57;;;;;;;9.40;6.82;;;2.10;99.90;;;;;;4904278;29;20043;-89
2022/03/07 08:45:27;;;;;;;12.68;7.72;;;2.30;99.90;;;;;;4905116;29;20474;-88
2022/03/07 08:47:53;;;;;;;10.13;7.97;;;2.30;99.90;;;;;;4888967;29;20036;-89
2022/03/07 08:50:19;;;;;;;10.07;7.03;;;2.50;99.90;;;;;;4889769;29;20381;-89
2022/03/07 08:52:46;;;;;;;9.55;6.75;;;2.60;99.90;;;;;;4907964;29;20034;-88
2022/03/07 08:55:12;;;;;;;9.10;6.78;;;2.70;99.90;;;;;;4902349;29;20115;-88
2022/03/07 08:57:38;;;;;;;10.00;6.93;;;2.80;99.90;;;;;;4903261;29;20033;-88
2022/03/07 09:00:07;;;;;;;10.55;6.45;;;2.90;99.90;;;;;;4887919;29;20056;-87
2022/03/07 09:02:33;;;;;;;11.40;7.65;;;3.00;99.90;;;;;;4888605;29;20032;-89
2022/03/07 09:04:59;;;;;;;9.32;6.18;;;3.10;99.90;;;;;;4907710;29;20103;-89
2022/03/07 09:07:28;;;;;;;10.80;7.32;;;3.20;99.90;;;;;;4904514;29;20144;-89
2022/03/07 09:09:55;;;;;;;12.15;7.47;;;3.30;99.90;;;;;;4905257;29;20505;-88
2022/03/07 09:12:22;;;;;;;10.18;7.00;;;3.40;99.90;;;;;;4905173;29;20033;-89
2022/03/07 09:14:48;;;;;;;10.55;7.00;;;3.50;99.90;;;;;;4913790;29;20040;-89
2022/03/07 09:17:14;;;;;;;11.85;7.72;;;3.60;99.90;;;;;;4906008;29;20060;-88
2022/03/07 09:19:39;;;;;;;10.35;7.18;;;3.70;99.90;;;;;;4904075;29;20040;-89
2022/03/07 09:22:05;;;;;;;8.75;6.32;;;3.80;99.90;;;;;;4901073;29;20036;-90
2022/03/07 09:24:31;;;;;;;8.13;6.15;;;3.80;99.90;;;;;;4909200;29;20122;-89
2022/03/07 09:26:56;;;;;;;7.20;5.32;;;3.80;99.90;;;;;;4904468;29;20024;-89
2022/03/07 09:29:24;;;;;;;8.93;5.82;;;3.80;99.90;;;;;;4904141;29;20040;-88
2022/03/07 09:31:49;;;;;;;8.65;5.80;;;3.90;99.90;;;;;;4904201;29;20032;-89
2022/03/07 09:34:15;;;;;;;9.02;5.70;;;3.90;99.90;;;;;;4903246;29;20505;-90
2022/03/07 09:36:41;;;;;;;8.18;5.72;;;4.10;99.90;;;;;;4907189;29;20083;-89
2022/03/07 09:39:07;;;;;;;6.25;4.75;;;5.00;99.90;;;;;;4914413;29;20031;-89
2022/03/07 09:41:33;;;;;;;8.25;5.32;;;6.60;99.90;;;;;;4907874;29;20142;-89
2022/03/07 09:43:59;;;;;;;7.35;4.47;;;8.00;99.90;;;;;;4925142;29;20100;-90
2022/03/07 09:46:25;;;;;;;5.40;4.00;;;9.30;99.90;;;;;;4915422;29;20036;-90
2022/03/07 09:48:52;;;;;;;7.18;4.90;;;10.50;99.90;;;;;;4916180;29;20041;-91
2022/03/07 09:51:18;;;;;;;7.45;4.90;;;11.30;99.90;;;;;;4904266;29;20040;-90
2022/03/07 09:53:44;;;;;;;6.15;4.10;;;11.80;97.10;;;;;;4899258;29;20088;-89
2022/03/07 09:56:10;;;;;;;5.97;3.67;;;12.00;96.90;;;;;;4918484;29;20025;-88
2022/03/07 09:58:35;;;;;;;7.13;4.40;;;11.70;97.40;;;;;;4916218;29;20037;-89
2022/03/07 10:01:10;;;;;;;5.45;3.83;;;12.00;96.80;;;;;;4905359;29;20035;-86
2022/03/07 10:03:36;;;;;;;5.07;3.50;;;12.40;96.70;;;;;;4915714;29;20068;-86
2022/03/07 10:06:02;;;;;;;4.97;3.42;;;12.80;95.90;;;;;;4935265;29;20075;-87
2022/03/07 10:08:29;;;;;;;5.50;3.58;;;13.20;94.70;;;;;;4923209;29;20076;-87
2022/03/07 10:10:56;;;;;;;4.65;2.97;;;13.60;94.00;;;;;;4919883;29;20032;-85
2022/03/07 10:13:23;;;;;;;7.15;4.07;;;13.90;93.60;;;;;;4904641;29;20037;-85
2022/03/07 10:16:03;;;;;;;6.07;3.35;;;14.30;92.10;;;;;;4911969;29;20040;-87
2022/03/07 10:18:30;;;;;;;7.30;4.50;;;14.70;91.20;;;;;;4914541;29;20432;-86
2022/03/07 10:21:10;;;;;;;8.65;4.30;;;15.00;88.30;;;;;;4914122;29;20044;-88
2022/03/07 10:23:35;;;;;;;5.53;3.45;;;15.00;85.70;;;;;;4909965;29;20040;-87
2022/03/07 10:26:09;;;;;;;6.05;3.83;;;15.20;86.60;;;;;;4925755;29;20072;-89
2022/03/07 10:28:37;;;;;;;4.82;3.20;;;15.40;85.30;;;;;;4903867;29;20072;-88
2022/03/07 10:31:17;;;;;;;4.50;2.92;;;15.60;84.90;;;;;;4900531;29;20032;-88
2022/03/07 10:33:44;;;;;;;5.78;3.30;;;16.00;85.10;;;;;;4883244;29;20080;-87
2022/03/07 10:36:10;;;;;;;4.55;2.92;;;16.30;83.20;;;;;;4897637;29;20075;-90
2022/03/07 10:38:35;;;;;;;3.63;2.80;;;16.30;81.90;;;;;;4902940;29;20028;-88
2022/03/07 10:41:01;;;;;;;3.75;2.70;;;16.30;82.20;;;;;;4905429;29;20056;-87
2022/03/07 10:43:28;;;;;;;5.25;3.50;;;16.50;81.00;;;;;;4884493;29;20039;-86
2022/03/07 10:45:59;;;;;;;5.40;3.13;;;16.40;78.90;;;;;;4895140;29;20092;-88
2022/03/07 10:48:28;;;;;;;5.72;3.00;;;16.40;78.20;;;;;;4899823;29;20107;-88
2022/03/07 10:50:59;;;;;;;4.38;3.20;;;16.30;77.90;;;;;;4900930;29;20132;-89
2022/03/07 10:53:25;;;;;;;4.60;2.90;;;16.40;76.90;;;;;;4899333;29;20028;-87
2022/03/07 10:56:00;;;;;;;4.43;2.72;;;16.60;77.50;;;;;;4913128;29;20032;-88
2022/03/07 10:58:28;;;;;;;4.55;3.15;;;17.10;76.80;;;;;;4901508;29;20118;-88
2022/03/07 11:00:57;;;;;;;4.80;3.00;;;17.20;74.40;;;;;;4901154;29;20039;-87
2022/03/07 11:03:33;;;;;;;4.18;2.80;;;17.20;73.70;;;;;;4912908;29;20025;-87
2022/03/07 11:06:00;;;;;;;3.50;2.38;;;17.40;74.10;;;;;;4891662;29;20059;-87
2022/03/07 11:08:27;;;;;;;4.45;2.60;;;17.50;73.70;;;;;;4896422;29;20032;-87
2022/03/07 11:10:57;;;;;;;3.67;2.63;;;17.70;73.20;;;;;;4896873;29;20085;-87
2022/03/07 11:13:26;;;;;;;5.63;3.15;;;18.00;72.20;;;;;;4895869;29;20100;-87
2022/03/07 11:15:57;;;;;;;4.32;2.60;;;18.00;71.70;;;;;;4910333;29;20028;-88
2022/03/07 11:18:24;;;;;;;5.00;2.92;;;18.00;71.30;;;;;;4896779;29;20036;-90
2022/03/07 11:20:52;;;;;;;4.13;2.78;;;18.00;70.20;;;;;;4878406;29;20732;-85
2022/03/07 11:23:18;;;;;;;4.75;2.80;;;17.90;70.00;;;;;;4894798;29;20132;-85
2022/03/07 11:25:45;;;;;;;4.13;2.70;;;17.80;70.70;;;;;;4915683;29;20138;-86
2022/03/07 11:28:11;;;;;;;4.15;2.92;;;17.80;69.90;;;;;;4917043;29;20075;-87
2022/03/07 11:30:39;;;;;;;5.22;3.00;;;17.80;69.40;;;;;;4899589;29;20037;-89
2022/03/07 11:33:20;;;;;;;4.07;2.95;;;17.50;69.40;;;;;;4882129;29;20063;-86
2022/03/07 11:35:49;;;;;;;5.57;3.42;;;17.40;69.20;;;;;;4912724;29;20051;-87
2022/03/07 11:38:16;;;;;;;5.75;3.42;;;17.30;69.00;;;;;;4921535;29;20044;-87
2022/03/07 11:41:14;;;;;;;4.63;3.10;;;17.30;69.20;;;;;;4901207;29;20037;-87
2022/03/07 11:43:52;;;;;;;5.53;3.42;;;17.30;68.90;;;;;;4839924;29;20044;-85
2022/03/07 11:46:47;;;;;;;5.53;3.20;;;17.20;70.20;;;;;;4902073;29;20044;-87
2022/03/07 11:49:26;;;;;;;5.40;3.05;;;17.30;69.70;;;;;;4904920;29;20024;-87
2022/03/07 11:52:03;;;;;;;5.07;3.15;;;17.70;69.40;;;;;;4904730;29;20043;-88
2022/03/07 11:54:29;;;;;;;5.50;3.15;;;17.90;69.10;;;;;;4907661;29;20037;-87
2022/03/07 11:57:10;;;;;;;3.95;2.70;;;18.20;69.30;;;;;;4918453;29;20036;-88
2022/03/07 11:59:36;;;;;;;3.97;2.78;;;18.30;68.70;;;;;;4923900;28;20565;-88
2022/03/07 12:02:02;;;;;;;5.95;3.17;;;18.10;68.60;;;;;;4922092;29;20023;-87
2022/03/07 12:04:40;;;;;;;4.32;3.30;;;17.70;68.40;;;;;;4921324;29;20032;-88
2022/03/07 12:07:10;;;;;;;5.55;3.88;;;17.90;68.40;;;;;;4939609;28;20036;-87
2022/03/07 12:09:37;;;;;;;5.68;3.28;;;17.80;67.50;;;;;;4918951;28;20067;-88
2022/03/07 12:12:15;;;;;;;4.68;3.42;;;17.70;68.00;;;;;;4913933;29;20565;-89
2022/03/07 12:14:43;;;;;;;5.95;3.95;;;18.20;68.10;;;;;;4905467;29;20248;-90
2022/03/07 12:17:12;;;;;;;4.78;3.33;;;18.60;68.60;;;;;;4918163;29;20100;-88
2022/03/07 12:19:39;;;;;;;5.55;3.70;;;18.90;68.60;;;;;;4901347;29;20070;-87
2022/03/07 12:22:15;;;;;;;6.55;3.90;;;17.90;67.60;;;;;;4913246;29;20530;-88
2022/03/07 12:24:42;;;;;;;8.20;4.28;;;17.00;70.30;;;;;;4903531;29;20044;-88
2022/03/07 12:27:08;;;;;;;6.05;4.45;;;16.70;70.50;;;;;;4917179;29;20033;-87
2022/03/07 12:29:39;;;;;;;5.22;4.07;;;16.60;69.90;;;;;;4909182;29;20032;-86
2022/03/07 12:32:06;;;;;;;5.93;3.95;;;16.00;69.90;;;;;;4909710;29;20107;-88
2022/03/07 12:34:34;;;;;;;8.45;4.80;;;15.60;70.60;;;;;;4900051;29;20036;-86
2022/03/07 12:37:03;;;;;;;5.68;4.72;;;14.80;71.40;;;;;;4917465;29;20055;-88
2022/03/07 12:39:42;;;;;;;6.97;5.13;;;14.40;72.30;;;;;;4909278;29;20044;-89
2022/03/07 12:42:08;;;;;;;5.18;4.10;;;14.50;73.20;;;;;;4909158;29;20028;-88
2022/03/07 12:44:34;;;;;;;5.22;3.88;;;15.10;74.00;;;;;;4916050;29;20487;-87